createdAt,value
2022-08-05T00:00:19.605Z,6.80
2022-08-05T00:03:07.790Z,7.50
2022-08-05T00:06:06.540Z,6.80
2022-08-05T00:08:36.254Z,6.40
2022-08-05T00:11:20.709Z,6.90
2022-08-05T00:13:56.511Z,7.30
2022-08-05T00:16:36.571Z,6.70
2022-08-05T00:19:13.441Z,6.20
2022-08-05T00:21:42.580Z,7.00
2022-08-05T00:24:11.380Z,6.80
2022-08-05T00:26:51.954Z,6.90
2022-08-05T00:29:22.559Z,6.90
2022-08-05T00:32:10.576Z,6.50
2022-08-05T00:35:04.760Z,6.80
2022-08-05T00:37:35.770Z,7.50
2022-08-05T00:40:27.362Z,6.50
2022-08-05T00:42:58.806Z,5.90
2022-08-05T00:45:37.899Z,6.40
2022-08-05T00:48:09.355Z,6.40
2022-08-05T00:50:44.364Z,6.10
2022-08-05T00:54:00.302Z,6.90
2022-08-05T00:56:05.734Z,5.90
2022-08-05T00:58:38.535Z,6.40
2022-08-05T01:01:12.360Z,6.40
2022-08-05T01:03:42.149Z,6.70
2022-08-05T01:06:15.286Z,6.50
2022-08-05T01:08:47.119Z,6.70
2022-08-05T01:11:22.348Z,6.30
2022-08-05T01:14:08.777Z,6.40
2022-08-05T01:16:52.403Z,6.10
2022-08-05T01:20:02.341Z,6.40
2022-08-05T01:22:39.551Z,6.70
2022-08-05T01:25:39.656Z,6.20
2022-08-05T01:28:22.425Z,6.70
2022-08-05T01:30:56.031Z,6.60
2022-08-05T01:33:35.589Z,6.40
2022-08-05T01:36:12.695Z,6.90
2022-08-05T01:38:48.314Z,7.40
2022-08-05T01:41:21.763Z,6.10
2022-08-05T01:43:55.178Z,6.50
2022-08-05T01:46:43.092Z,6.60
2022-08-05T01:49:23.420Z,6.70
2022-08-05T01:52:02.213Z,7.10
2022-08-05T01:54:51.949Z,6.70
2022-08-05T01:58:12.657Z,6.60
2022-08-05T02:00:16.390Z,7.30
2022-08-05T02:02:54.949Z,6.70
2022-08-05T02:05:30.964Z,6.80
2022-08-05T02:08:03.657Z,7.20
2022-08-05T02:10:39.016Z,7.20
2022-08-05T02:13:16.061Z,6.70
2022-08-05T02:15:59.119Z,6.40
2022-08-05T02:18:37.133Z,6.90
2022-08-05T02:21:16.245Z,6.40
2022-08-05T02:23:48.508Z,6.90
2022-08-05T02:26:27.119Z,6.90
2022-08-05T02:28:58.257Z,7.50
2022-08-05T02:31:34.783Z,7.10
2022-08-05T02:34:09.208Z,6.90
2022-08-05T02:36:43.994Z,7.60
2022-08-05T02:39:21.359Z,7.50
2022-08-05T02:41:57.821Z,7.30
2022-08-05T02:44:32.178Z,7.00
2022-08-05T02:47:02.601Z,7.90
2022-08-05T02:49:36.577Z,7.10
2022-08-05T02:52:11.508Z,7.70
2022-08-05T02:54:50.659Z,7.80
2022-08-05T02:58:12.112Z,7.70
2022-08-05T03:00:14.646Z,7.40
2022-08-05T03:02:45.197Z,7.70
2022-08-05T03:05:15.338Z,7.20
2022-08-05T03:08:01.155Z,8.80
2022-08-05T03:10:34.422Z,8.30
2022-08-05T03:13:10.859Z,7.60
2022-08-05T03:15:47.479Z,7.40
2022-08-05T03:18:17.436Z,7.70
2022-08-05T03:20:48.966Z,7.40
2022-08-05T03:23:18.944Z,7.70
2022-08-05T03:26:30.088Z,7.60
2022-08-05T03:28:41.503Z,7.20
2022-08-05T03:31:10.852Z,7.50
2022-08-05T03:33:52.911Z,7.30
2022-08-05T03:36:30.070Z,7.70
2022-08-05T03:39:05.530Z,8.20
2022-08-05T03:41:45.232Z,7.00
2022-08-05T03:44:19.845Z,7.90
2022-08-05T03:46:48.629Z,7.90
2022-08-05T03:49:17.383Z,7.80
2022-08-05T03:52:50.547Z,8.00
2022-08-05T03:56:03.748Z,8.10
2022-08-05T03:57:44.520Z,7.80
2022-08-05T04:00:16.486Z,7.30
2022-08-05T04:02:58.120Z,8.30
2022-08-05T04:05:33.942Z,7.50
2022-08-05T04:08:29.640Z,7.90
2022-08-05T04:10:55.353Z,7.70
2022-08-05T04:13:24.440Z,8.20
2022-08-05T04:16:04.167Z,8.10
2022-08-05T04:18:34.483Z,7.80
2022-08-05T04:21:05.258Z,7.50
2022-08-05T04:23:57.106Z,7.40
2022-08-05T04:26:24.571Z,8.30
2022-08-05T04:28:53.238Z,7.80
2022-08-05T04:31:22.226Z,7.70
2022-08-05T04:34:31.960Z,7.10
2022-08-05T04:36:46.324Z,7.90
2022-08-05T04:39:18.497Z,6.90
2022-08-05T04:41:48.277Z,8.10
2022-08-05T04:44:21.450Z,7.50
2022-08-05T04:46:58.503Z,7.80
2022-08-05T04:49:38.465Z,7.10
2022-08-05T04:52:16.563Z,7.10
2022-08-05T04:54:44.995Z,7.60
2022-08-05T04:57:13.377Z,7.10
2022-08-05T04:59:41.729Z,7.30
2022-08-05T05:02:36.679Z,7.30
2022-08-05T05:05:01.713Z,7.10
2022-08-05T05:07:32.709Z,7.40
2022-08-05T05:10:06.347Z,7.60
2022-08-05T05:12:36.742Z,6.50
2022-08-05T05:15:10.722Z,6.80
2022-08-05T05:17:57.037Z,7.30
2022-08-05T05:20:28.826Z,6.40
2022-08-05T05:22:58.359Z,7.20
2022-08-05T05:25:40.568Z,7.60
2022-08-05T05:28:10.428Z,6.80
2022-08-05T05:30:41.619Z,6.80
2022-08-05T05:33:17.082Z,6.60
2022-08-05T05:35:46.582Z,6.70
2022-08-05T05:38:22.231Z,7.10
2022-08-05T05:40:56.907Z,6.80
2022-08-05T05:48:07.140Z,6.50
2022-08-05T05:50:31.235Z,6.50
2022-08-05T05:53:02.552Z,6.20
2022-08-05T05:55:52.264Z,6.20
2022-08-05T05:58:31.403Z,6.40
2022-08-05T06:01:12.320Z,5.40
2022-08-05T06:04:00.400Z,6.30
2022-08-05T06:06:31.075Z,6.70
2022-08-05T06:09:03.994Z,5.80
2022-08-05T06:11:35.286Z,5.80
2022-08-05T06:14:07.924Z,5.10
2022-08-05T06:16:38.468Z,5.50
2022-08-05T06:19:07.417Z,5.10
2022-08-05T06:21:38.869Z,5.00
2022-08-05T06:24:12.853Z,5.30
2022-08-05T06:26:51.801Z,5.10
2022-08-05T06:29:25.063Z,5.50
2022-08-05T06:32:25.585Z,4.90
2022-08-05T06:36:06.822Z,4.80
2022-08-05T06:39:18.837Z,4.70
2022-08-05T06:41:51.022Z,4.70
2022-08-05T06:49:21.289Z,4.80
2022-08-05T06:52:36.952Z,4.20
2022-08-05T07:31:17.445Z,3.30
2022-08-05T08:00:25.047Z,3.70
2022-08-05T09:11:07.768Z,2.60
2022-08-05T09:14:09.517Z,2.60
2022-08-05T09:16:32.819Z,2.40
2022-08-05T09:19:06.706Z,2.50
2022-08-05T09:22:18.377Z,3.70
2022-08-05T09:24:31.772Z,2.90
2022-08-05T09:27:08.481Z,2.40
2022-08-05T09:29:47.980Z,2.50
2022-08-05T09:32:46.012Z,2.50
2022-08-05T09:35:26.808Z,2.30
2022-08-05T09:38:16.459Z,2.40
2022-08-05T09:40:53.750Z,2.70
2022-08-05T09:43:41.614Z,2.50
2022-08-05T09:46:28.825Z,2.90
2022-08-05T09:49:19.621Z,2.70
2022-08-05T09:51:51.846Z,2.50
2022-08-05T09:54:32.360Z,4.00
2022-08-05T09:57:04.269Z,2.60
2022-08-05T09:59:58.122Z,2.70
2022-08-05T10:02:39.459Z,2.70
2022-08-05T10:05:15.410Z,2.80
2022-08-05T10:08:34.653Z,2.80
2022-08-05T10:10:54.354Z,2.40
2022-08-05T10:13:47.792Z,2.80
2022-08-05T10:16:37.754Z,2.50
2022-08-05T10:19:14.782Z,2.50
2022-08-05T10:21:50.143Z,4.60
2022-08-05T10:24:24.958Z,3.30
2022-08-05T10:27:01.232Z,2.60
2022-08-05T10:30:06.719Z,2.40
2022-08-05T10:32:54.429Z,3.00
2022-08-05T10:35:24.062Z,2.40
2022-08-05T10:38:13.985Z,2.30
2022-08-05T10:40:58.009Z,2.90
2022-08-05T10:43:41.414Z,2.10
2022-08-05T10:46:17.716Z,2.60
2022-08-05T10:48:56.967Z,2.00
2022-08-05T10:51:57.510Z,2.40
2022-08-05T10:54:56.076Z,2.40
2022-08-05T10:57:33.885Z,2.50
2022-08-05T11:00:18.736Z,2.30
2022-08-05T11:03:24.924Z,2.70
2022-08-05T11:06:16.234Z,2.10
2022-08-05T11:09:16.607Z,2.30
2022-08-05T11:11:53.653Z,2.90
2022-08-05T11:14:57.502Z,2.70
2022-08-05T11:18:00.151Z,2.80
2022-08-05T11:20:39.188Z,2.80
2022-08-05T11:23:33.626Z,2.50
2022-08-05T11:26:28.484Z,2.70
2022-08-05T11:29:13.345Z,2.50
2022-08-05T11:31:57.405Z,2.70
2022-08-05T11:34:52.215Z,2.50
2022-08-05T11:38:29.052Z,2.10
2022-08-05T11:41:15.457Z,2.10
2022-08-05T11:44:06.418Z,2.30
2022-08-05T11:47:09.271Z,2.40
2022-08-05T11:49:35.328Z,2.10
2022-08-05T11:52:08.643Z,2.40
2022-08-05T11:54:48.557Z,2.40
2022-08-05T11:58:08.260Z,2.40
2022-08-05T12:00:30.624Z,2.50
2022-08-05T12:03:28.859Z,2.10
2022-08-05T12:06:10.020Z,2.30
2022-08-05T12:08:50.956Z,2.40
2022-08-05T12:11:24.877Z,2.20
2022-08-05T12:14:04.385Z,2.40
2022-08-05T12:16:38.505Z,2.60
2022-08-05T12:20:26.092Z,2.40
2022-08-05T12:22:09.731Z,2.50
2022-08-05T12:24:49.462Z,2.60
2022-08-05T12:27:26.605Z,2.40
2022-08-05T12:30:07.880Z,2.30
2022-08-05T12:32:50.778Z,2.50
2022-08-05T12:35:37.238Z,2.30
2022-08-05T12:38:12.194Z,2.80
2022-08-05T12:40:47.262Z,2.90
2022-08-05T12:43:22.297Z,2.80
2022-08-05T12:45:57.113Z,2.80
2022-08-05T12:48:32.905Z,2.20
2022-08-05T12:52:10.178Z,2.80
2022-08-05T12:54:14.687Z,2.90
2022-08-05T12:56:54.035Z,3.00
2022-08-05T12:59:46.936Z,2.90
2022-08-05T13:02:27.303Z,2.80
2022-08-05T13:05:07.006Z,3.00
2022-08-05T13:08:00.377Z,2.30
2022-08-05T13:10:34.325Z,2.90
2022-08-05T13:13:09.030Z,2.50
2022-08-05T13:15:50.892Z,2.70
2022-08-05T13:18:24.042Z,2.30
2022-08-05T13:20:56.229Z,2.60
2022-08-05T13:23:28.120Z,2.50
2022-08-05T13:26:03.782Z,2.80
2022-08-05T13:28:35.640Z,4.30
2022-08-05T13:31:15.943Z,2.40
2022-08-05T13:34:22.397Z,2.60
2022-08-05T13:36:44.035Z,2.60
2022-08-05T13:40:13.041Z,2.80
2022-08-05T13:42:15.122Z,2.40
2022-08-05T13:44:47.706Z,2.90
2022-08-05T13:47:28.085Z,2.70
2022-08-05T13:50:14.830Z,2.60
2022-08-05T13:52:50.058Z,2.50
2022-08-05T13:55:41.474Z,3.00
2022-08-05T13:58:30.176Z,2.90
2022-08-05T14:01:03.057Z,3.20
2022-08-05T14:03:35.881Z,2.60
2022-08-05T14:06:26.611Z,3.50
2022-08-05T14:08:59.458Z,2.80
2022-08-05T14:11:32.008Z,3.10
2022-08-05T14:14:26.084Z,2.90
2022-08-05T14:17:05.483Z,2.90
2022-08-05T14:19:54.391Z,3.20
2022-08-05T14:22:30.290Z,22.10
2022-08-05T14:25:30.079Z,3.20
2022-08-05T14:28:31.359Z,3.00
2022-08-05T14:31:03.373Z,3.10
2022-08-05T14:35:14.394Z,3.40
2022-08-05T14:37:57.869Z,3.10
2022-08-05T14:42:20.937Z,3.00
2022-08-05T14:59:21.850Z,3.40
2022-08-05T15:02:42.835Z,2.60
2022-08-05T15:05:18.629Z,2.60
2022-08-05T15:08:06.200Z,3.00
2022-08-05T15:10:43.521Z,2.80
2022-08-05T15:13:51.441Z,2.80
2022-08-05T15:16:24.841Z,2.70
2022-08-05T15:18:58.505Z,2.70
2022-08-05T15:21:32.816Z,2.70
2022-08-05T15:24:08.325Z,2.60
2022-08-05T15:26:41.379Z,3.00
2022-08-05T15:29:24.142Z,3.10
2022-08-05T15:34:18.506Z,4.40
2022-08-05T15:36:51.074Z,3.50
2022-08-05T15:40:59.098Z,3.10
2022-08-05T15:42:54.680Z,2.90
2022-08-05T15:45:11.397Z,3.10
2022-08-05T15:47:46.027Z,3.30
2022-08-05T15:50:18.965Z,2.90
2022-08-05T15:53:01.837Z,3.30
2022-08-05T16:54:44.361Z,3.50
2022-08-05T16:57:22.074Z,3.70
2022-08-05T17:00:34.639Z,3.20
2022-08-05T17:03:15.450Z,3.90
2022-08-05T17:05:53.618Z,3.90
2022-08-05T17:08:33.640Z,4.40
2022-08-05T17:11:16.848Z,3.90
2022-08-05T17:13:47.180Z,5.00
2022-08-05T17:16:32.714Z,3.60
2022-08-05T17:19:02.194Z,3.60
2022-08-05T17:21:36.236Z,3.70
2022-08-05T17:24:19.368Z,4.50
2022-08-05T17:26:57.307Z,4.90
2022-08-05T17:29:33.302Z,3.70
2022-08-05T17:32:11.940Z,3.70
2022-08-05T17:34:47.522Z,3.60
2022-08-05T17:37:41.495Z,4.50
2022-08-05T17:40:12.460Z,5.10
2022-08-05T17:42:50.783Z,4.80
2022-08-05T17:45:22.081Z,4.30
2022-08-05T17:47:55.077Z,4.40
2022-08-05T17:50:28.517Z,3.70
2022-08-05T17:53:00.387Z,4.30
2022-08-05T17:55:34.214Z,5.50
2022-08-05T17:58:07.009Z,4.50
2022-08-05T18:00:40.874Z,6.50
2022-08-05T18:03:24.120Z,6.30
2022-08-05T18:06:05.333Z,4.20
2022-08-05T18:08:34.076Z,4.20
2022-08-05T18:11:03.440Z,4.20
2022-08-05T18:13:36.814Z,4.70
2022-08-05T18:16:13.820Z,5.40
2022-08-05T18:18:42.341Z,5.60
2022-08-05T18:21:21.314Z,4.90
2022-08-05T18:23:54.505Z,4.30
2022-08-05T18:26:29.155Z,4.80
2022-08-05T18:28:58.989Z,4.60
2022-08-05T18:31:33.080Z,4.80
2022-08-05T18:34:06.138Z,4.80
2022-08-05T18:36:37.911Z,4.40
2022-08-05T18:39:09.979Z,4.50
2022-08-05T18:42:02.180Z,4.80
2022-08-05T18:44:34.916Z,5.00
2022-08-05T18:47:04.969Z,5.40
2022-08-05T18:49:57.820Z,4.60
2022-08-05T18:52:36.451Z,5.20
2022-08-05T18:55:10.311Z,5.60
2022-08-05T18:57:43.316Z,4.80
2022-08-05T19:00:29.381Z,5.10
2022-08-05T19:03:03.796Z,5.30
2022-08-05T19:06:12.872Z,5.70
2022-08-05T19:08:31.368Z,5.40
2022-08-05T19:11:04.446Z,6.00
2022-08-05T19:13:40.138Z,5.00
2022-08-05T19:16:24.964Z,4.80
2022-08-05T19:18:57.775Z,4.50
2022-08-05T19:21:29.609Z,5.10
2022-08-05T19:24:08.921Z,4.90
2022-08-05T19:26:44.064Z,6.00
2022-08-05T19:29:24.185Z,6.00
2022-08-05T19:31:57.489Z,6.70
2022-08-05T19:34:29.628Z,7.10
2022-08-05T19:36:58.826Z,8.60
2022-08-05T19:39:29.466Z,7.10
2022-08-05T19:42:08.128Z,5.80
2022-08-05T19:44:45.012Z,6.10
2022-08-05T19:47:16.345Z,6.20
2022-08-05T19:49:46.051Z,6.30
2022-08-05T19:52:30.418Z,6.00
2022-08-05T19:56:15.272Z,6.10
2022-08-05T19:58:57.580Z,6.30
2022-08-05T20:01:45.951Z,6.80
2022-08-05T20:04:15.413Z,6.80
2022-08-05T20:06:46.547Z,6.70
2022-08-05T20:09:15.357Z,7.00
2022-08-05T20:11:54.362Z,6.80
2022-08-05T20:14:54.157Z,7.00
2022-08-05T20:18:33.133Z,6.30
2022-08-05T20:21:28.212Z,6.50
2022-08-05T20:35:04.482Z,6.40
2022-08-05T20:38:06.087Z,6.70
2022-08-05T20:41:43.485Z,6.40
2022-08-05T20:44:18.788Z,7.70
2022-08-05T20:46:58.061Z,7.20
2022-08-05T20:49:26.632Z,6.90
2022-08-05T20:51:57.503Z,6.60
2022-08-05T20:54:59.821Z,6.60
2022-08-05T20:57:41.803Z,6.30
2022-08-05T21:00:51.814Z,6.90
2022-08-05T21:07:15.336Z,6.80
2022-08-05T21:12:40.939Z,6.50
2022-08-05T21:16:09.182Z,9.60
2022-08-05T21:18:42.963Z,6.30
2022-08-05T21:21:14.362Z,6.60
2022-08-05T21:23:45.914Z,7.00
2022-08-05T21:26:26.392Z,6.60
2022-08-05T21:29:03.840Z,6.20
2022-08-05T21:35:55.393Z,6.70
2022-08-05T21:39:26.507Z,6.60
2022-08-05T21:52:38.926Z,6.90
2022-08-05T21:56:01.235Z,7.40
2022-08-05T21:58:13.336Z,7.00
2022-08-05T22:01:12.461Z,8.00
2022-08-05T22:03:58.494Z,7.70
2022-08-05T22:06:35.333Z,7.10
2022-08-05T22:09:13.657Z,7.40
2022-08-05T22:11:47.810Z,7.40
2022-08-05T22:17:59.846Z,6.90
2022-08-05T22:20:32.322Z,7.20
2022-08-05T22:23:25.470Z,6.70
2022-08-05T22:26:56.812Z,6.60
2022-08-05T22:29:30.705Z,7.00
2022-08-05T22:32:27.118Z,7.80
2022-08-05T22:34:59.126Z,7.90
2022-08-05T22:37:58.111Z,7.70
2022-08-05T22:40:23.919Z,8.20
2022-08-05T22:43:55.235Z,7.20
2022-08-05T22:47:30.055Z,8.10
2022-08-05T22:50:26.515Z,7.70
2022-08-05T22:52:59.136Z,7.90
2022-08-05T22:55:56.522Z,7.10
2022-08-05T22:58:28.261Z,7.40
2022-08-05T23:01:00.662Z,7.00
2022-08-05T23:03:58.034Z,7.30
2022-08-05T23:06:26.411Z,7.30
2022-08-05T23:09:27.122Z,7.20
2022-08-05T23:11:50.281Z,7.00
2022-08-05T23:14:32.021Z,7.30
2022-08-05T23:17:24.187Z,7.70
2022-08-05T23:20:06.002Z,8.80
2022-08-05T23:22:48.342Z,8.60
2022-08-05T23:25:52.961Z,8.80
2022-08-05T23:28:12.882Z,9.20
2022-08-05T23:30:53.069Z,8.80
2022-08-05T23:34:04.700Z,8.50
2022-08-05T23:36:18.034Z,8.30
2022-08-05T23:43:24.309Z,8.40
2022-08-05T23:45:57.715Z,8.90
2022-08-05T23:48:29.564Z,9.10
2022-08-05T23:51:01.330Z,9.70
2022-08-05T23:53:46.708Z,8.90
2022-08-05T23:56:50.856Z,8.10
2022-08-05T23:59:27.788Z,8.70
